Time;durP1;ratioP1;P1;durP2;ratioP2;P2;SDS_P1;SDS_P2;PMS_P1;PMS_P2;Temp;Humidity;BMP_temperature;BMP_pressure;BME280_temperature;BME280_humidity;BME280_pressure;Samples;Min_cycle;Max_cycle;Signal;HPM_P1;HPM_P2
2023/03/01 00:01:18;;;;;;;27.38;10.70;;;1.30;99.90;;;;;;5041812;28;20105;-72
2023/03/01 00:03:44;;;;;;;24.83;10.77;;;1.30;99.90;;;;;;5041972;28;20057;-74
2023/03/01 00:06:10;;;;;;;27.63;10.88;;;1.30;99.90;;;;;;5041746;28;20025;-72
2023/03/01 00:08:36;;;;;;;24.05;10.57;;;1.40;99.90;;;;;;5041689;28;20033;-74
2023/03/01 00:11:30;;;;;;;21.77;10.52;;;1.30;99.90;;;;;;5041508;28;20025;-72
2023/03/01 00:13:58;;;;;;;20.95;10.38;;;1.30;99.90;;;;;;5041258;28;20030;-73
2023/03/01 00:16:31;;;;;;;22.60;9.55;;;1.30;99.90;;;;;;5041908;28;20093;-72
2023/03/01 00:18:57;;;;;;;19.77;9.15;;;1.30;99.90;;;;;;5042167;28;20081;-72
2023/03/01 00:21:24;;;;;;;21.10;10.43;;;1.30;99.90;;;;;;5042002;28;20029;-74
2023/03/01 00:23:50;;;;;;;21.45;10.25;;;1.30;99.90;;;;;;5041853;28;20067;-73
2023/03/01 00:26:18;;;;;;;23.73;8.73;;;1.30;99.90;;;;;;5041190;28;20141;-72
2023/03/01 00:28:44;;;;;;;20.48;9.85;;;1.30;99.90;;;;;;5041479;28;20024;-73
2023/03/01 00:31:16;;;;;;;20.38;9.40;;;1.20;99.90;;;;;;5039891;28;20042;-72
2023/03/01 00:33:42;;;;;;;20.02;9.55;;;1.20;99.90;;;;;;5041608;28;20056;-72
2023/03/01 00:36:09;;;;;;;20.83;10.30;;;1.20;99.90;;;;;;5040044;28;20037;-73
2023/03/01 00:38:39;;;;;;;22.98;9.10;;;1.20;99.90;;;;;;5040428;28;20026;-74
2023/03/01 00:41:10;;;;;;;24.85;10.30;;;1.10;99.90;;;;;;5039890;28;20033;-73
2023/03/01 00:43:36;;;;;;;21.00;9.50;;;1.10;99.90;;;;;;5041026;28;20106;-73
2023/03/01 00:46:07;;;;;;;26.42;10.05;;;1.10;99.90;;;;;;5040083;28;20025;-73
2023/03/01 00:48:34;;;;;;;19.80;9.25;;;1.00;99.90;;;;;;5041221;28;20029;-72
2023/03/01 00:51:19;;;;;;;19.85;9.40;;;1.00;99.90;;;;;;5041491;28;20022;-73
2023/03/01 00:53:45;;;;;;;18.25;8.77;;;0.90;99.90;;;;;;5041185;28;20047;-73
2023/03/01 00:56:13;;;;;;;21.80;9.13;;;0.90;99.90;;;;;;5040677;28;20033;-73
2023/03/01 00:58:38;;;;;;;20.98;9.02;;;0.80;99.90;;;;;;5039631;28;20113;-74
2023/03/01 01:01:16;;;;;;;16.80;7.55;;;0.80;99.90;;;;;;5041471;28;20103;-74
2023/03/01 01:03:48;;;;;;;17.48;8.00;;;0.70;99.90;;;;;;5039917;28;20032;-75
2023/03/01 01:06:21;;;;;;;16.85;7.32;;;0.70;99.90;;;;;;5041116;28;20735;-73
2023/03/01 01:08:47;;;;;;;15.10;7.28;;;0.70;99.90;;;;;;5041064;28;20032;-74
2023/03/01 01:11:14;;;;;;;18.65;8.00;;;0.70;99.90;;;;;;5039785;28;20033;-73
2023/03/01 01:13:40;;;;;;;17.45;7.75;;;0.70;99.90;;;;;;5039723;28;20029;-72
2023/03/01 01:16:06;;;;;;;19.63;7.82;;;0.70;99.90;;;;;;5040434;28;20044;-73
2023/03/01 01:18:32;;;;;;;14.52;7.13;;;0.70;99.90;;;;;;5041141;28;20018;-75
2023/03/01 01:21:02;;;;;;;18.45;8.13;;;0.60;99.90;;;;;;5039805;28;20025;-73
2023/03/01 01:23:28;;;;;;;15.25;6.78;;;0.60;99.90;;;;;;5040194;28;20026;-73
2023/03/01 01:25:54;;;;;;;17.75;7.43;;;0.60;99.90;;;;;;5040936;28;20045;-72
2023/03/01 01:28:19;;;;;;;15.60;7.43;;;0.60;99.90;;;;;;5041032;28;20075;-73
2023/03/01 01:30:45;;;;;;;18.40;7.85;;;0.60;99.90;;;;;;5039632;28;20527;-73
2023/03/01 01:33:10;;;;;;;15.88;7.55;;;0.60;99.90;;;;;;5041004;28;20026;-72
2023/03/01 01:35:36;;;;;;;15.35;7.13;;;0.60;99.90;;;;;;5040876;28;20052;-73
2023/03/01 01:38:01;;;;;;;15.02;7.10;;;0.60;99.90;;;;;;5039795;28;20033;-72
2023/03/01 01:40:27;;;;;;;15.02;6.97;;;0.50;99.90;;;;;;5040995;28;20048;-72
2023/03/01 01:42:52;;;;;;;14.32;6.90;;;0.50;99.90;;;;;;5039291;28;20052;-73
2023/03/01 01:45:33;;;;;;;14.15;6.80;;;0.50;99.90;;;;;;5040880;28;20088;-73
2023/03/01 01:48:04;;;;;;;13.50;7.05;;;0.50;99.90;;;;;;5039492;28;20029;-71
2023/03/01 01:50:37;;;;;;;13.98;7.03;;;0.50;99.90;;;;;;5040497;28;20033;-73
2023/03/01 01:53:06;;;;;;;14.50;6.57;;;0.40;99.90;;;;;;5045084;28;20022;-73
2023/03/01 01:55:32;;;;;;;14.07;6.82;;;0.40;99.90;;;;;;5044282;28;20418;-72
2023/03/01 01:58:02;;;;;;;15.32;7.15;;;0.40;99.90;;;;;;5044537;28;20448;-72
2023/03/01 02:00:29;;;;;;;16.48;6.90;;;0.40;99.90;;;;;;5043324;28;20025;-72
2023/03/01 02:03:01;;;;;;;13.95;6.97;;;0.40;99.90;;;;;;5042810;28;20022;-72
2023/03/01 02:05:26;;;;;;;17.98;6.82;;;0.40;99.90;;;;;;5043395;28;20111;-72
2023/03/01 02:07:52;;;;;;;14.35;6.57;;;0.40;99.90;;;;;;5044234;28;20056;-72
2023/03/01 02:10:19;;;;;;;14.98;6.68;;;0.40;99.90;;;;;;5043947;28;20036;-72
2023/03/01 02:12:45;;;;;;;13.48;6.63;;;0.40;99.90;;;;;;5043759;28;20030;-72
2023/03/01 02:15:11;;;;;;;16.98;6.85;;;0.30;99.90;;;;;;5044038;28;20475;-71
2023/03/01 02:17:37;;;;;;;12.18;6.20;;;0.30;99.90;;;;;;5043861;28;20037;-72
2023/03/01 02:20:17;;;;;;;15.60;6.90;;;0.30;99.90;;;;;;5043022;28;20018;-72
2023/03/01 02:22:46;;;;;;;13.60;6.43;;;0.30;99.90;;;;;;5044162;28;20053;-72
2023/03/01 02:25:26;;;;;;;15.85;6.55;;;0.30;99.90;;;;;;5042649;28;20037;-73
2023/03/01 02:28:15;;;;;;;14.85;6.40;;;0.30;99.90;;;;;;5042600;28;20037;-73
2023/03/01 02:31:41;;;;;;;13.75;6.30;;;0.20;99.90;;;;;;5042411;28;20029;-72
2023/03/01 02:33:32;;;;;;;15.63;7.07;;;0.30;99.90;;;;;;5044163;28;20034;-72
2023/03/01 02:36:00;;;;;;;11.50;5.72;;;0.20;99.90;;;;;;5042669;28;20036;-73
2023/03/01 02:38:26;;;;;;;14.65;6.35;;;0.20;99.90;;;;;;5043456;28;20029;-73
2023/03/01 02:40:53;;;;;;;15.00;6.93;;;0.10;99.90;;;;;;5043503;28;20034;-72
2023/03/01 02:43:22;;;;;;;17.75;6.60;;;0.10;99.90;;;;;;5042429;28;20049;-73
2023/03/01 02:45:53;;;;;;;15.35;6.60;;;0.10;99.90;;;;;;5042996;28;20029;-71
2023/03/01 02:48:19;;;;;;;13.60;6.10;;;0.10;99.90;;;;;;5043589;28;21133;-73
2023/03/01 02:50:51;;;;;;;15.63;6.60;;;0.10;99.90;;;;;;5042295;28;20421;-72
2023/03/01 02:53:32;;;;;;;14.75;6.63;;;0.10;99.90;;;;;;5043149;28;20022;-72
2023/03/01 02:55:57;;;;;;;13.82;6.72;;;0.10;99.90;;;;;;5043420;28;20450;-71
2023/03/01 02:58:23;;;;;;;11.82;6.30;;;0.00;99.90;;;;;;5043501;28;20032;-73
2023/03/01 03:00:49;;;;;;;19.15;6.88;;;0.00;99.90;;;;;;5042119;28;20398;-72
2023/03/01 03:03:16;;;;;;;16.23;6.93;;;0.00;99.90;;;;;;5040936;28;20022;-73
2023/03/01 03:05:42;;;;;;;14.93;7.00;;;0.10;99.90;;;;;;5043020;28;20073;-71
2023/03/01 03:08:08;;;;;;;18.88;7.22;;;0.00;99.90;;;;;;5041676;28;20029;-72
2023/03/01 03:10:40;;;;;;;12.80;6.97;;;0.00;99.90;;;;;;5041989;28;20030;-73
2023/03/01 03:13:11;;;;;;;15.60;7.20;;;0.00;99.90;;;;;;5041442;28;20032;-71
2023/03/01 03:15:38;;;;;;;12.27;6.45;;;0.00;99.90;;;;;;5042790;28;20044;-71
2023/03/01 03:18:07;;;;;;;19.35;6.43;;;-0.10;99.90;;;;;;5043076;28;20022;-72
2023/03/01 03:20:33;;;;;;;13.27;6.80;;;-0.10;99.90;;;;;;5043066;28;20025;-72
2023/03/01 03:23:00;;;;;;;14.68;6.80;;;-0.10;99.90;;;;;;5042976;28;20040;-73
2023/03/01 03:25:27;;;;;;;13.40;6.25;;;-0.20;99.90;;;;;;5041372;28;20085;-72
2023/03/01 03:27:59;;;;;;;13.00;6.90;;;-0.20;99.90;;;;;;5041479;28;20041;-73
2023/03/01 03:30:30;;;;;;;14.98;6.90;;;-0.20;99.90;;;;;;5041675;28;21722;-72
2023/03/01 03:32:58;;;;;;;15.13;7.03;;;-0.20;99.90;;;;;;5043007;28;20032;-72
2023/03/01 03:35:32;;;;;;;15.30;7.32;;;-0.20;99.90;;;;;;5041027;28;20047;-73
2023/03/01 03:38:03;;;;;;;15.38;7.20;;;-0.20;99.90;;;;;;5041430;28;20034;-74
2023/03/01 03:40:40;;;;;;;15.85;7.43;;;-0.20;99.90;;;;;;5043059;28;20025;-72
2023/03/01 03:43:09;;;;;;;17.48;6.88;;;-0.20;99.90;;;;;;5042597;28;20414;-72
2023/03/01 03:45:35;;;;;;;17.58;7.47;;;-0.20;99.90;;;;;;5042261;28;20090;-74
2023/03/01 03:48:03;;;;;;;17.40;6.88;;;-0.10;99.90;;;;;;5041437;28;20022;-72
2023/03/01 03:50:29;;;;;;;14.98;6.55;;;-0.10;99.90;;;;;;5041933;28;20093;-72
2023/03/01 03:52:54;;;;;;;16.35;6.57;;;-0.10;99.90;;;;;;5041050;28;20045;-73
2023/03/01 03:55:20;;;;;;;14.95;6.80;;;-0.10;99.90;;;;;;5042348;28;20025;-71
2023/03/01 03:57:51;;;;;;;17.08;6.45;;;-0.20;99.90;;;;;;5041991;28;20097;-72
2023/03/01 04:00:18;;;;;;;12.75;6.60;;;-0.20;99.90;;;;;;5041741;28;20026;-72
2023/03/01 04:02:45;;;;;;;13.13;6.57;;;-0.20;99.90;;;;;;5040638;28;20033;-73
2023/03/01 04:05:14;;;;;;;17.45;6.57;;;-0.20;99.90;;;;;;5040309;28;20017;-71
2023/03/01 04:07:40;;;;;;;14.48;6.93;;;-0.30;99.90;;;;;;5040374;28;20029;-72
2023/03/01 04:10:09;;;;;;;15.23;7.13;;;-0.30;99.90;;;;;;5041938;28;20029;-72
2023/03/01 04:12:35;;;;;;;14.27;7.00;;;-0.30;99.90;;;;;;5042160;28;20029;-72
2023/03/01 04:15:12;;;;;;;13.90;6.70;;;-0.30;99.90;;;;;;5040156;28;20029;-72
2023/03/01 04:17:39;;;;;;;13.75;6.30;;;-0.30;99.90;;;;;;5040275;28;20044;-73
2023/03/01 04:20:06;;;;;;;17.48;7.05;;;-0.30;99.90;;;;;;5042129;28;20021;-72
2023/03/01 04:22:33;;;;;;;16.23;6.47;;;-0.30;99.90;;;;;;5040526;28;20017;-75
2023/03/01 04:25:01;;;;;;;16.80;6.65;;;-0.40;99.90;;;;;;5042110;28;20025;-74
2023/03/01 04:27:27;;;;;;;13.50;6.68;;;-0.40;99.90;;;;;;5041458;28;20038;-73
2023/03/01 04:29:52;;;;;;;16.55;6.90;;;-0.50;99.90;;;;;;5041017;28;20071;-73
2023/03/01 04:32:18;;;;;;;22.50;6.80;;;-0.50;99.90;;;;;;5040455;28;20098;-72
2023/03/01 04:34:44;;;;;;;15.55;7.18;;;-0.50;99.90;;;;;;5041664;28;20021;-73
2023/03/01 04:37:09;;;;;;;16.60;6.28;;;-0.50;99.90;;;;;;5040262;28;20104;-73
2023/03/01 04:39:45;;;;;;;13.88;6.40;;;-0.50;99.90;;;;;;5041494;28;20022;-74
2023/03/01 04:42:11;;;;;;;14.27;7.15;;;-0.50;99.90;;;;;;5041138;28;20017;-72
2023/03/01 04:44:36;;;;;;;11.30;5.93;;;-0.50;99.90;;;;;;5041449;28;20045;-73
2023/03/01 04:47:02;;;;;;;15.77;6.70;;;-0.50;99.90;;;;;;5040188;28;20021;-72
2023/03/01 04:49:28;;;;;;;16.90;6.22;;;-0.50;99.90;;;;;;5040620;28;20033;-72
2023/03/01 04:51:53;;;;;;;19.05;6.72;;;-0.50;99.90;;;;;;5039915;28;20108;-73
2023/03/01 04:54:19;;;;;;;13.35;5.78;;;-0.50;99.90;;;;;;5041388;28;20064;-72
2023/03/01 04:56:44;;;;;;;13.07;5.82;;;-0.50;99.90;;;;;;5040492;28;20037;-72
2023/03/01 04:59:12;;;;;;;13.82;6.38;;;-0.50;99.90;;;;;;5039655;28;20064;-72
2023/03/01 05:01:38;;;;;;;16.65;6.13;;;-0.60;99.90;;;;;;5040100;28;20064;-73
2023/03/01 05:04:05;;;;;;;15.13;6.47;;;-0.60;99.90;;;;;;5041395;28;20022;-73
2023/03/01 05:06:31;;;;;;;17.55;6.75;;;-0.60;99.90;;;;;;5041595;28;20032;-73
2023/03/01 05:08:57;;;;;;;14.32;6.60;;;-0.60;99.90;;;;;;5041266;28;20033;-73
2023/03/01 05:11:23;;;;;;;13.48;6.60;;;-0.70;99.90;;;;;;5040315;28;20025;-72
2023/03/01 05:13:49;;;;;;;13.02;6.35;;;-0.70;99.90;;;;;;5040966;28;20044;-74
2023/03/01 05:16:16;;;;;;;17.77;6.57;;;-0.70;99.90;;;;;;5039140;28;20041;-72
2023/03/01 05:18:43;;;;;;;14.27;6.65;;;-0.70;99.90;;;;;;5039804;28;20047;-74
2023/03/01 05:21:12;;;;;;;13.90;7.35;;;-0.70;99.90;;;;;;5041017;28;20063;-73
2023/03/01 05:23:38;;;;;;;17.90;6.82;;;-0.80;99.90;;;;;;5040761;28;20033;-73
2023/03/01 05:26:05;;;;;;;16.67;7.13;;;-0.70;99.90;;;;;;5040832;28;20041;-73
2023/03/01 05:28:31;;;;;;;14.50;7.63;;;-0.70;99.90;;;;;;5043361;28;20032;-73
2023/03/01 05:30:57;;;;;;;17.30;7.40;;;-0.60;99.90;;;;;;5045576;28;20025;-73
2023/03/01 05:33:24;;;;;;;14.02;6.90;;;-0.70;99.90;;;;;;5043062;28;20026;-74
2023/03/01 05:35:51;;;;;;;16.27;7.22;;;-0.80;99.90;;;;;;5042995;28;20089;-73
2023/03/01 05:38:17;;;;;;;16.40;7.47;;;-0.80;99.90;;;;;;5043650;28;20030;-73
2023/03/01 05:40:46;;;;;;;14.00;7.05;;;-0.80;99.90;;;;;;5041696;28;20368;-73
2023/03/01 05:43:13;;;;;;;18.02;7.38;;;-0.80;99.90;;;;;;5043941;28;20025;-73
2023/03/01 05:45:40;;;;;;;19.55;8.05;;;-0.80;99.90;;;;;;5043268;28;20071;-72
2023/03/01 05:48:07;;;;;;;17.98;7.95;;;-0.80;99.90;;;;;;5044236;28;20047;-72
2023/03/01 05:50:36;;;;;;;19.33;7.80;;;-0.80;99.90;;;;;;5044784;28;20085;-72
2023/03/01 05:53:10;;;;;;;18.65;7.70;;;-0.70;99.90;;;;;;5044668;28;20037;-73
2023/03/01 05:55:37;;;;;;;19.05;7.60;;;-0.80;99.90;;;;;;5042891;28;20049;-72
2023/03/01 05:58:05;;;;;;;18.02;8.13;;;-0.80;99.90;;;;;;5043145;28;20032;-72
2023/03/01 06:00:31;;;;;;;17.92;7.80;;;-0.70;99.90;;;;;;5044329;28;20072;-72
2023/03/01 06:02:58;;;;;;;19.83;8.90;;;-0.70;99.90;;;;;;5044827;28;20029;-73
2023/03/01 06:05:24;;;;;;;23.52;9.63;;;-0.80;99.90;;;;;;5042790;28;20034;-73
2023/03/01 06:07:50;;;;;;;19.80;9.27;;;-0.70;99.90;;;;;;5042775;28;20068;-73
2023/03/01 06:10:17;;;;;;;22.42;10.05;;;-0.80;99.90;;;;;;5042475;28;20048;-73
2023/03/01 06:12:43;;;;;;;19.58;9.20;;;-0.90;99.90;;;;;;5040744;28;20097;-71
2023/03/01 06:15:12;;;;;;;20.17;9.43;;;-0.90;99.90;;;;;;5042163;28;20049;-70
2023/03/01 06:17:40;;;;;;;25.20;9.80;;;-1.00;99.90;;;;;;5042716;28;20037;-70
2023/03/01 06:20:09;;;;;;;27.33;9.98;;;-1.00;99.90;;;;;;5044340;28;20029;-71
2023/03/01 06:22:36;;;;;;;21.02;9.77;;;-1.10;99.90;;;;;;5043117;28;20028;-71
2023/03/01 06:25:02;;;;;;;23.88;9.75;;;-1.10;99.90;;;;;;5042723;28;20545;-70
2023/03/01 06:27:27;;;;;;;23.50;9.93;;;-1.10;99.90;;;;;;5042623;28;20638;-72
2023/03/01 06:29:53;;;;;;;19.77;8.88;;;-1.10;99.90;;;;;;5040895;28;20033;-70
2023/03/01 06:32:19;;;;;;;23.13;10.35;;;-1.10;99.90;;;;;;5039877;28;20053;-72
2023/03/01 06:34:44;;;;;;;29.13;10.38;;;-1.20;99.90;;;;;;5042278;28;20030;-71
2023/03/01 06:37:10;;;;;;;23.42;9.73;;;-1.20;99.90;;;;;;5039314;28;21635;-71
2023/03/01 06:39:36;;;;;;;18.67;10.45;;;-1.10;99.90;;;;;;5039869;28;20025;-72
2023/03/01 06:42:02;;;;;;;24.70;11.30;;;-1.10;99.90;;;;;;5042734;28;20048;-71
2023/03/01 06:44:28;;;;;;;22.45;11.48;;;-1.10;99.90;;;;;;5039457;28;20029;-71
2023/03/01 06:46:54;;;;;;;28.50;11.07;;;-1.10;99.90;;;;;;5042140;28;20047;-70
2023/03/01 06:49:19;;;;;;;24.65;10.90;;;-1.00;99.90;;;;;;5042163;28;20108;-71
2023/03/01 06:51:46;;;;;;;25.63;10.93;;;-1.00;99.90;;;;;;5042052;28;20021;-71
2023/03/01 06:54:12;;;;;;;28.33;13.80;;;-0.90;99.90;;;;;;5043408;28;20032;-71
2023/03/01 06:56:37;;;;;;;27.08;11.98;;;-0.80;99.90;;;;;;5040987;28;20045;-71
2023/03/01 06:59:03;;;;;;;25.63;12.02;;;-0.80;99.90;;;;;;5043658;28;20026;-71
2023/03/01 07:01:30;;;;;;;26.92;11.80;;;-0.70;99.90;;;;;;5041723;28;20056;-70
2023/03/01 07:03:56;;;;;;;24.27;11.35;;;-0.60;99.90;;;;;;5042408;28;20041;-71
2023/03/01 07:06:22;;;;;;;28.17;10.93;;;-0.50;99.90;;;;;;5056736;28;20025;-71
2023/03/01 07:08:47;;;;;;;30.40;12.00;;;-0.40;99.90;;;;;;5043010;28;20554;-71
2023/03/01 07:11:14;;;;;;;25.23;12.38;;;-0.30;99.90;;;;;;5041676;28;20041;-70
2023/03/01 07:13:39;;;;;;;28.10;11.52;;;-0.30;99.90;;;;;;5042066;28;20112;-70
2023/03/01 07:16:05;;;;;;;27.85;11.75;;;-0.20;99.90;;;;;;5042773;28;20457;-70
2023/03/01 07:18:31;;;;;;;21.80;11.07;;;-0.10;99.90;;;;;;5043344;28;20048;-71
2023/03/01 07:20:56;;;;;;;24.88;10.38;;;0.00;99.90;;;;;;5042325;28;20061;-70
2023/03/01 07:23:22;;;;;;;29.88;10.73;;;0.10;99.90;;;;;;5040212;28;20099;-70
2023/03/01 07:25:54;;;;;;;25.55;11.15;;;0.10;99.90;;;;;;5042333;28;20625;-70
2023/03/01 07:28:20;;;;;;;35.42;15.60;;;0.20;99.90;;;;;;5042011;28;20056;-71
2023/03/01 07:30:46;;;;;;;31.80;14.90;;;0.20;99.90;;;;;;5042999;28;20029;-70
2023/03/01 07:33:11;;;;;;;33.63;14.75;;;0.30;99.90;;;;;;5039022;28;20048;-70
2023/03/01 07:35:37;;;;;;;29.00;12.95;;;0.30;99.90;;;;;;5042705;28;20026;-70
2023/03/01 07:38:03;;;;;;;247.80;68.10;;;0.40;99.90;;;;;;5043042;28;20041;-71
2023/03/01 07:40:28;;;;;;;156.82;45.55;;;0.50;99.90;;;;;;5035763;28;20029;-70
2023/03/01 07:42:57;;;;;;;59.60;22.65;;;0.60;99.90;;;;;;5042666;28;20034;-71
2023/03/01 07:45:24;;;;;;;30.80;14.02;;;0.70;99.90;;;;;;5042781;28;20025;-69
2023/03/01 07:47:51;;;;;;;29.65;14.00;;;0.80;99.90;;;;;;5042369;28;20034;-71
2023/03/01 07:50:17;;;;;;;29.52;13.35;;;0.80;99.90;;;;;;5040569;28;20029;-70
2023/03/01 07:52:45;;;;;;;26.25;12.77;;;0.90;99.90;;;;;;5042321;28;20064;-71
2023/03/01 07:55:11;;;;;;;26.92;12.18;;;1.00;99.90;;;;;;5040866;28;20390;-71
2023/03/01 07:57:37;;;;;;;33.42;13.90;;;1.00;99.90;;;;;;5042283;28;20037;-70
2023/03/01 08:00:03;;;;;;;26.00;13.23;;;1.00;99.90;;;;;;5042341;28;20034;-70
2023/03/01 08:02:28;;;;;;;28.25;12.68;;;1.00;99.90;;;;;;5040555;28;20029;-71
2023/03/01 08:04:54;;;;;;;35.20;15.95;;;1.10;99.90;;;;;;5041694;28;20040;-71
2023/03/01 08:07:19;;;;;;;37.72;16.85;;;1.20;99.90;;;;;;5042055;28;20017;-70
2023/03/01 08:09:45;;;;;;;34.20;15.50;;;1.10;99.90;;;;;;5042143;28;20040;-70
2023/03/01 08:12:10;;;;;;;34.35;14.70;;;1.10;99.90;;;;;;5041438;28;20116;-69
2023/03/01 08:14:36;;;;;;;34.10;15.00;;;1.10;99.90;;;;;;5040723;28;20052;-70
2023/03/01 08:17:02;;;;;;;34.90;15.45;;;1.20;99.90;;;;;;5042147;28;20033;-70
2023/03/01 08:19:29;;;;;;;36.97;14.95;;;1.30;99.90;;;;;;5042570;28;20026;-69
2023/03/01 08:21:54;;;;;;;27.50;12.70;;;1.30;99.90;;;;;;5042431;28;20045;-71
2023/03/01 08:24:20;;;;;;;30.75;14.40;;;1.50;99.90;;;;;;5041784;28;20025;-69
2023/03/01 08:26:45;;;;;;;28.52;13.35;;;1.60;99.90;;;;;;5041832;28;20057;-69
2023/03/01 08:29:11;;;;;;;32.17;12.93;;;1.60;99.90;;;;;;5041924;28;20079;-71
2023/03/01 08:31:39;;;;;;;31.73;13.27;;;1.70;99.90;;;;;;5040596;28;20022;-70
2023/03/01 08:34:11;;;;;;;35.08;14.35;;;1.80;99.90;;;;;;5041963;28;20033;-69
2023/03/01 08:36:40;;;;;;;25.50;12.48;;;2.00;99.90;;;;;;5041749;28;20045;-69
2023/03/01 08:39:07;;;;;;;29.17;13.45;;;2.10;99.90;;;;;;5041397;28;20087;-69
2023/03/01 08:41:33;;;;;;;44.03;19.58;;;2.20;99.90;;;;;;5041280;28;20060;-70
2023/03/01 08:43:59;;;;;;;36.53;15.45;;;2.30;99.90;;;;;;5040587;28;20025;-70
2023/03/01 08:46:27;;;;;;;32.53;14.18;;;2.50;99.90;;;;;;5041751;28;20506;-68
2023/03/01 08:48:52;;;;;;;29.80;14.60;;;2.60;99.90;;;;;;5056717;28;20048;-69
2023/03/01 08:51:19;;;;;;;35.92;13.77;;;2.80;99.90;;;;;;5038023;28;20886;-69
2023/03/01 08:53:45;;;;;;;24.33;12.40;;;3.00;99.90;;;;;;5041162;28;20033;-69
2023/03/01 08:56:11;;;;;;;26.75;12.80;;;3.10;99.90;;;;;;5040979;28;20117;-71
2023/03/01 08:58:37;;;;;;;25.55;13.90;;;3.20;99.90;;;;;;5041563;28;20113;-69
2023/03/01 09:01:11;;;;;;;27.67;12.40;;;3.40;99.90;;;;;;5041410;28;20414;-69
2023/03/01 09:03:37;;;;;;;24.35;11.80;;;3.50;99.90;;;;;;5037931;28;20030;-68
2023/03/01 09:06:04;;;;;;;25.15;11.60;;;3.60;99.90;;;;;;5039560;28;20068;-69
2023/03/01 09:08:33;;;;;;;27.27;12.30;;;3.80;99.90;;;;;;5039952;28;20051;-70
2023/03/01 09:11:03;;;;;;;28.05;13.30;;;3.90;99.90;;;;;;5038956;28;20029;-70
2023/03/01 09:13:31;;;;;;;28.98;12.35;;;4.00;99.90;;;;;;5039525;28;20057;-70
2023/03/01 09:15:57;;;;;;;26.38;13.27;;;4.10;99.90;;;;;;5038910;28;20112;-70
2023/03/01 09:18:23;;;;;;;28.40;13.63;;;4.20;99.90;;;;;;5038728;28;20422;-68
2023/03/01 09:20:48;;;;;;;31.25;13.05;;;4.20;99.90;;;;;;5039247;28;20079;-71
2023/03/01 09:23:14;;;;;;;28.42;14.00;;;4.30;99.90;;;;;;5039254;28;20029;-70
2023/03/01 09:25:39;;;;;;;30.35;15.90;;;4.30;99.90;;;;;;5040412;28;20109;-70
2023/03/01 09:28:05;;;;;;;31.70;15.93;;;4.30;99.90;;;;;;5039214;28;20025;-70
2023/03/01 09:30:30;;;;;;;42.90;18.35;;;4.30;99.90;;;;;;5038354;28;20120;-70
2023/03/01 09:32:59;;;;;;;47.60;24.27;;;4.30;99.90;;;;;;5040077;28;20018;-69
2023/03/01 09:35:25;;;;;;;43.38;19.92;;;4.40;99.90;;;;;;5039896;28;20064;-70
2023/03/01 09:37:51;;;;;;;39.58;18.70;;;4.40;99.90;;;;;;5040025;28;20038;-70
2023/03/01 09:40:20;;;;;;;39.60;17.58;;;4.50;99.90;;;;;;5040689;28;20041;-70
2023/03/01 09:43:31;;;;;;;33.17;15.55;;;4.60;99.90;;;;;;5039633;28;20105;-70
2023/03/01 09:46:01;;;;;;;32.85;15.35;;;4.70;99.90;;;;;;5033486;28;20044;-69
2023/03/01 09:48:32;;;;;;;35.70;15.73;;;4.90;99.90;;;;;;5040423;28;20017;-69
2023/03/01 09:51:00;;;;;;;28.13;14.75;;;5.00;99.90;;;;;;5040420;28;20108;-69
2023/03/01 09:53:33;;;;;;;24.17;12.60;;;5.10;99.90;;;;;;5040438;28;20088;-69
2023/03/01 09:56:22;;;;;;;23.80;12.88;;;5.30;99.90;;;;;;5056015;28;20029;-69
2023/03/01 09:59:17;;;;;;;23.85;12.05;;;5.40;99.90;;;;;;5040739;28;20033;-69
2023/03/01 10:02:23;;;;;;;29.45;14.90;;;5.50;99.90;;;;;;5039367;28;20037;-70
2023/03/01 10:04:51;;;;;;;26.48;13.00;;;5.50;99.90;;;;;;5040775;28;20042;-72
2023/03/01 10:07:34;;;;;;;28.67;13.35;;;5.60;99.90;;;;;;5040542;28;20049;-70
2023/03/01 10:10:03;;;;;;;36.83;16.38;;;5.80;99.90;;;;;;5038739;28;20026;-71
2023/03/01 10:12:36;;;;;;;30.83;15.43;;;5.90;99.90;;;;;;5041399;28;20113;-70
2023/03/01 10:15:17;;;;;;;30.63;12.23;;;6.00;99.90;;;;;;5042072;28;20052;-70
2023/03/01 10:17:55;;;;;;;24.77;12.50;;;6.00;99.90;;;;;;5044008;28;20042;-69
2023/03/01 10:20:24;;;;;;;24.95;11.00;;;6.00;99.90;;;;;;5043491;28;20737;-70
2023/03/01 10:22:52;;;;;;;26.55;12.25;;;6.10;99.90;;;;;;5042480;28;20017;-69
2023/03/01 10:25:36;;;;;;;25.73;12.30;;;6.20;99.90;;;;;;5041601;28;20030;-70
2023/03/01 10:28:29;;;;;;;31.23;12.52;;;6.40;99.90;;;;;;5041495;28;20037;-71
2023/03/01 10:30:57;;;;;;;26.05;12.18;;;6.50;99.90;;;;;;5038384;28;20046;-70
2023/03/01 10:33:28;;;;;;;29.17;13.80;;;6.70;99.90;;;;;;5041605;28;20363;-71
2023/03/01 10:35:54;;;;;;;30.40;16.23;;;6.80;99.90;;;;;;5042453;28;20493;-70
2023/03/01 10:38:20;;;;;;;32.22;15.15;;;6.90;99.90;;;;;;5036567;28;20056;-70
2023/03/01 10:41:05;;;;;;;34.75;16.95;;;6.90;99.90;;;;;;5033404;28;20025;-68
2023/03/01 10:43:46;;;;;;;34.55;16.60;;;7.00;99.90;;;;;;5036983;28;20367;-69
2023/03/01 10:46:34;;;;;;;29.77;15.63;;;7.20;99.90;;;;;;5043706;28;20098;-69
2023/03/01 10:49:16;;;;;;;30.17;15.82;;;7.20;99.90;;;;;;5042098;28;20025;-70
2023/03/01 10:51:44;;;;;;;30.80;16.70;;;7.30;99.90;;;;;;5041645;28;20053;-68
2023/03/01 10:54:25;;;;;;;37.85;19.63;;;7.40;99.90;;;;;;5043331;28;20025;-68
2023/03/01 10:56:56;;;;;;;26.70;13.85;;;7.70;99.90;;;;;;5043205;28;20105;-69
2023/03/01 10:59:32;;;;;;;24.13;13.90;;;7.90;99.90;;;;;;5036614;28;20072;-69
2023/03/01 11:02:26;;;;;;;27.63;15.50;;;8.40;99.90;;;;;;5040257;28;20421;-70
2023/03/01 11:04:56;;;;;;;26.17;15.57;;;9.10;99.90;;;;;;5036541;28;20034;-69
2023/03/01 11:07:22;;;;;;;26.63;16.08;;;9.60;99.90;;;;;;5041983;28;20382;-69
2023/03/01 11:09:47;;;;;;;25.70;14.80;;;10.00;99.90;;;;;;5036276;28;20030;-69
2023/03/01 11:12:15;;;;;;;24.52;15.05;;;10.40;99.90;;;;;;5039464;28;20098;-70
2023/03/01 11:14:54;;;;;;;24.33;15.20;;;10.70;99.90;;;;;;5040231;28;20025;-70
2023/03/01 11:17:29;;;;;;;23.08;14.50;;;11.10;99.90;;;;;;5040888;28;20046;-69
2023/03/01 11:20:32;;;;;;;21.77;14.88;;;11.50;99.90;;;;;;5039001;28;20052;-69
2023/03/01 11:23:05;;;;;;;26.50;16.52;;;11.80;99.90;;;;;;5040087;28;20100;-68
2023/03/01 11:25:36;;;;;;;24.08;16.90;;;12.10;99.90;;;;;;5040183;28;20029;-70
2023/03/01 11:28:04;;;;;;;27.95;16.60;;;12.40;99.90;;;;;;5040391;28;20091;-72
2023/03/01 11:30:39;;;;;;;23.17;15.80;;;12.70;99.90;;;;;;5040222;28;20037;-71
2023/03/01 11:33:08;;;;;;;24.08;15.95;;;12.90;99.90;;;;;;5040987;28;20037;-71
2023/03/01 11:35:41;;;;;;;23.85;15.88;;;13.20;99.90;;;;;;5040113;28;20025;-70
2023/03/01 11:38:25;;;;;;;24.15;14.07;;;13.00;99.90;;;;;;5040627;28;20053;-70
2023/03/01 11:41:21;;;;;;;21.10;13.60;;;13.10;99.90;;;;;;5039398;28;20108;-70
2023/03/01 11:44:02;;;;;;;23.25;15.25;;;13.20;99.90;;;;;;5042038;28;20041;-69
2023/03/01 11:46:31;;;;;;;21.27;15.43;;;13.30;99.90;;;;;;5042130;28;20029;-70
2023/03/01 11:49:31;;;;;;;23.27;15.55;;;13.40;99.90;;;;;;5037886;28;20041;-69
2023/03/01 11:52:24;;;;;;;19.58;13.85;;;13.60;99.90;;;;;;5037981;28;20034;-70
2023/03/01 11:55:12;;;;;;;22.73;14.80;;;13.60;99.90;;;;;;5039233;28;20036;-70
2023/03/01 11:58:00;;;;;;;20.80;15.30;;;13.60;99.90;;;;;;5039586;28;20037;-70
2023/03/01 12:00:47;;;;;;;19.55;14.93;;;13.60;99.90;;;;;;5040516;28;20076;-69
2023/03/01 12:03:24;;;;;;;20.73;14.15;;;13.70;99.90;;;;;;5040107;28;20033;-70
2023/03/01 12:06:12;;;;;;;22.63;14.88;;;13.60;99.90;;;;;;5041191;28;20038;-70
2023/03/01 12:09:03;;;;;;;21.58;15.25;;;13.80;99.90;;;;;;5041016;28;20084;-70
2023/03/01 12:11:57;;;;;;;21.80;15.43;;;13.80;99.90;;;;;;5041373;28;20037;-70
2023/03/01 12:14:26;;;;;;;21.50;15.95;;;13.90;99.90;;;;;;5040379;28;20037;-70
2023/03/01 12:17:23;;;;;;;22.08;16.20;;;14.30;99.90;;;;;;5038807;28;20041;-70
2023/03/01 12:20:13;;;;;;;22.02;15.30;;;14.60;99.90;;;;;;5037057;28;20033;-71
2023/03/01 12:22:42;;;;;;;21.75;15.65;;;14.90;99.90;;;;;;5039700;28;20398;-71
2023/03/01 12:25:47;;;;;;;21.80;16.40;;;15.20;99.90;;;;;;5038631;28;20093;-69
2023/03/01 12:28:28;;;;;;;22.30;16.08;;;15.20;99.90;;;;;;5038680;28;20538;-69
2023/03/01 12:31:26;;;;;;;24.48;15.90;;;15.20;99.90;;;;;;5039073;28;20030;-69
2023/03/01 12:33:59;;;;;;;23.48;16.35;;;14.80;99.90;;;;;;5040263;28;20029;-71
2023/03/01 12:36:47;;;;;;;23.23;15.82;;;14.60;99.90;;;;;;5039481;28;20132;-69
2023/03/01 12:39:36;;;;;;;23.65;16.95;;;14.80;99.90;;;;;;5039965;28;20037;-70
2023/03/01 12:42:22;;;;;;;22.02;15.80;;;15.00;99.90;;;;;;5041227;28;20037;-69
2023/03/01 12:45:03;;;;;;;26.42;17.65;;;15.20;99.90;;;;;;5036176;28;20038;-70
2023/03/01 12:47:47;;;;;;;27.20;19.33;;;15.50;99.90;;;;;;5036151;28;20045;-68
2023/03/01 12:50:23;;;;;;;23.13;16.60;;;15.70;99.90;;;;;;5041126;28;20107;-69
2023/03/01 12:52:58;;;;;;;25.98;17.40;;;16.00;99.90;;;;;;5040237;28;20045;-68
2023/03/01 12:55:37;;;;;;;23.42;17.88;;;16.20;99.90;;;;;;5041741;28;20025;-67